sensor_id;sensor_type;location;lat;lon;timestamp;temperature;humidity
19522;DHT22;9905;52.126;5.596;2023-07-13T00:02:05;17.30;99.90
19522;DHT22;9905;52.126;5.596;2023-07-13T00:04:32;17.30;99.90
19522;DHT22;9905;52.126;5.596;2023-07-13T00:07:00;17.30;99.90
19522;DHT22;9905;52.126;5.596;2023-07-13T00:09:27;17.30;99.90
19522;DHT22;9905;52.126;5.596;2023-07-13T00:11:55;17.30;99.90
19522;DHT22;9905;52.126;5.596;2023-07-13T00:14:24;17.20;99.90
19522;DHT22;9905;52.126;5.596;2023-07-13T00:16:51;17.10;99.90
19522;DHT22;9905;52.126;5.596;2023-07-13T00:19:20;17.20;99.90
19522;DHT22;9905;52.126;5.596;2023-07-13T00:21:47;17.10;99.90
19522;DHT22;9905;52.126;5.596;2023-07-13T00:24:16;17.10;99.90
19522;DHT22;9905;52.126;5.596;2023-07-13T00:26:49;17.10;99.90
19522;DHT22;9905;52.126;5.596;2023-07-13T00:29:16;17.00;99.90
19522;DHT22;9905;52.126;5.596;2023-07-13T00:31:43;17.00;99.90
19522;DHT22;9905;52.126;5.596;2023-07-13T00:34:10;16.90;99.90
19522;DHT22;9905;52.126;5.596;2023-07-13T00:36:38;16.90;99.90
19522;DHT22;9905;52.126;5.596;2023-07-13T00:39:05;16.80;99.90
19522;DHT22;9905;52.126;5.596;2023-07-13T00:41:33;16.80;99.90
19522;DHT22;9905;52.126;5.596;2023-07-13T00:44:00;16.70;99.90
19522;DHT22;9905;52.126;5.596;2023-07-13T00:46:28;16.70;99.90
19522;DHT22;9905;52.126;5.596;2023-07-13T00:48:58;16.60;99.90
19522;DHT22;9905;52.126;5.596;2023-07-13T00:51:30;16.60;99.90
19522;DHT22;9905;52.126;5.596;2023-07-13T00:54:05;16.60;99.90
19522;DHT22;9905;52.126;5.596;2023-07-13T00:56:33;16.60;99.90
19522;DHT22;9905;52.126;5.596;2023-07-13T00:59:02;16.60;99.90
19522;DHT22;9905;52.126;5.596;2023-07-13T01:01:30;16.50;99.90
19522;DHT22;9905;52.126;5.596;2023-07-13T01:03:57;16.40;99.90
19522;DHT22;9905;52.126;5.596;2023-07-13T01:06:25;16.40;99.90
19522;DHT22;9905;52.126;5.596;2023-07-13T01:08:56;16.40;99.90
19522;DHT22;9905;52.126;5.596;2023-07-13T01:11:27;16.40;99.90
19522;DHT22;9905;52.126;5.596;2023-07-13T01:13:54;16.40;99.90
19522;DHT22;9905;52.126;5.596;2023-07-13T01:16:24;16.30;99.90
19522;DHT22;9905;52.126;5.596;2023-07-13T01:18:52;16.30;99.90
19522;DHT22;9905;52.126;5.596;2023-07-13T01:21:20;16.30;99.90
19522;DHT22;9905;52.126;5.596;2023-07-13T01:23:47;16.30;99.90
19522;DHT22;9905;52.126;5.596;2023-07-13T01:26:15;16.30;99.90
19522;DHT22;9905;52.126;5.596;2023-07-13T01:28:42;16.20;99.90
19522;DHT22;9905;52.126;5.596;2023-07-13T01:31:09;16.20;99.90
19522;DHT22;9905;52.126;5.596;2023-07-13T01:33:38;16.10;99.90
19522;DHT22;9905;52.126;5.596;2023-07-13T01:36:05;16.10;99.90
19522;DHT22;9905;52.126;5.596;2023-07-13T01:38:35;16.10;99.90
19522;DHT22;9905;52.126;5.596;2023-07-13T01:41:03;16.10;99.90
19522;DHT22;9905;52.126;5.596;2023-07-13T01:43:30;16.00;99.90
19522;DHT22;9905;52.126;5.596;2023-07-13T01:45:58;16.10;99.90
19522;DHT22;9905;52.126;5.596;2023-07-13T01:48:25;16.00;99.90
19522;DHT22;9905;52.126;5.596;2023-07-13T01:50:52;16.00;99.90
19522;DHT22;9905;52.126;5.596;2023-07-13T01:53:19;15.90;99.90
19522;DHT22;9905;52.126;5.596;2023-07-13T01:55:47;16.00;99.90
19522;DHT22;9905;52.126;5.596;2023-07-13T01:58:14;15.90;99.90
19522;DHT22;9905;52.126;5.596;2023-07-13T02:00:41;15.90;99.90
19522;DHT22;9905;52.126;5.596;2023-07-13T02:03:08;15.90;99.90
19522;DHT22;9905;52.126;5.596;2023-07-13T02:05:35;15.90;99.90
19522;DHT22;9905;52.126;5.596;2023-07-13T02:08:03;15.90;99.90
19522;DHT22;9905;52.126;5.596;2023-07-13T02:10:30;15.80;99.90
19522;DHT22;9905;52.126;5.596;2023-07-13T02:12:58;15.80;99.90
19522;DHT22;9905;52.126;5.596;2023-07-13T02:15:25;15.70;99.90
19522;DHT22;9905;52.126;5.596;2023-07-13T02:17:55;15.70;99.90
19522;DHT22;9905;52.126;5.596;2023-07-13T02:20:22;15.70;99.90
19522;DHT22;9905;52.126;5.596;2023-07-13T02:22:49;15.70;99.90
19522;DHT22;9905;52.126;5.596;2023-07-13T02:25:16;15.70;99.90
19522;DHT22;9905;52.126;5.596;2023-07-13T02:27:43;15.60;99.90
19522;DHT22;9905;52.126;5.596;2023-07-13T02:30:14;15.60;99.90
19522;DHT22;9905;52.126;5.596;2023-07-13T02:32:42;15.60;99.90
19522;DHT22;9905;52.126;5.596;2023-07-13T02:35:09;15.60;99.90
19522;DHT22;9905;52.126;5.596;2023-07-13T02:37:36;15.50;99.90
19522;DHT22;9905;52.126;5.596;2023-07-13T02:40:16;15.50;99.90
19522;DHT22;9905;52.126;5.596;2023-07-13T02:43:18;15.60;99.90
19522;DHT22;9905;52.126;5.596;2023-07-13T02:45:47;15.50;99.90
19522;DHT22;9905;52.126;5.596;2023-07-13T02:48:14;15.50;99.90
19522;DHT22;9905;52.126;5.596;2023-07-13T02:50:41;15.50;99.90
19522;DHT22;9905;52.126;5.596;2023-07-13T02:53:08;15.50;99.90
19522;DHT22;9905;52.126;5.596;2023-07-13T02:55:35;15.40;99.90
19522;DHT22;9905;52.126;5.596;2023-07-13T02:58:02;15.40;99.90
19522;DHT22;9905;52.126;5.596;2023-07-13T03:00:29;15.50;99.90
19522;DHT22;9905;52.126;5.596;2023-07-13T03:02:57;15.40;99.90
19522;DHT22;9905;52.126;5.596;2023-07-13T03:05:25;15.50;99.90
19522;DHT22;9905;52.126;5.596;2023-07-13T03:07:52;15.40;99.90
19522;DHT22;9905;52.126;5.596;2023-07-13T03:10:19;15.40;99.90
19522;DHT22;9905;52.126;5.596;2023-07-13T03:12:46;15.40;99.90
19522;DHT22;9905;52.126;5.596;2023-07-13T03:15:14;15.40;99.90
19522;DHT22;9905;52.126;5.596;2023-07-13T03:17:43;15.30;99.90
19522;DHT22;9905;52.126;5.596;2023-07-13T03:20:11;15.30;99.90
19522;DHT22;9905;52.126;5.596;2023-07-13T03:22:38;15.30;99.90
19522;DHT22;9905;52.126;5.596;2023-07-13T03:25:06;15.30;99.90
19522;DHT22;9905;52.126;5.596;2023-07-13T03:27:33;15.30;99.90
19522;DHT22;9905;52.126;5.596;2023-07-13T03:30:00;15.20;99.90
19522;DHT22;9905;52.126;5.596;2023-07-13T03:32:27;15.30;99.90
19522;DHT22;9905;52.126;5.596;2023-07-13T03:34:54;15.30;99.90
19522;DHT22;9905;52.126;5.596;2023-07-13T03:37:24;15.30;99.90
19522;DHT22;9905;52.126;5.596;2023-07-13T03:39:58;15.30;99.90
19522;DHT22;9905;52.126;5.596;2023-07-13T03:42:27;15.30;99.90
19522;DHT22;9905;52.126;5.596;2023-07-13T03:44:54;15.30;99.90
19522;DHT22;9905;52.126;5.596;2023-07-13T03:47:22;15.30;99.90
19522;DHT22;9905;52.126;5.596;2023-07-13T03:49:49;15.20;99.90
19522;DHT22;9905;52.126;5.596;2023-07-13T03:52:15;15.20;99.90
19522;DHT22;9905;52.126;5.596;2023-07-13T03:54:44;15.20;99.90
19522;DHT22;9905;52.126;5.596;2023-07-13T03:57:11;15.30;99.90
19522;DHT22;9905;52.126;5.596;2023-07-13T03:59:38;15.30;99.90
19522;DHT22;9905;52.126;5.596;2023-07-13T04:02:05;15.30;99.90
19522;DHT22;9905;52.126;5.596;2023-07-13T04:04:32;15.30;99.90
19522;DHT22;9905;52.126;5.596;2023-07-13T04:06:59;15.30;99.90
19522;DHT22;9905;52.126;5.596;2023-07-13T04:09:25;15.30;99.90
19522;DHT22;9905;52.126;5.596;2023-07-13T04:11:54;15.30;99.90
19522;DHT22;9905;52.126;5.596;2023-07-13T04:14:21;15.20;99.90
19522;DHT22;9905;52.126;5.596;2023-07-13T04:16:48;15.30;99.90
19522;DHT22;9905;52.126;5.596;2023-07-13T04:19:15;15.30;99.90
19522;DHT22;9905;52.126;5.596;2023-07-13T04:21:45;15.20;99.90
19522;DHT22;9905;52.126;5.596;2023-07-13T04:24:12;15.20;99.90
19522;DHT22;9905;52.126;5.596;2023-07-13T04:26:39;15.20;99.90
19522;DHT22;9905;52.126;5.596;2023-07-13T04:29:08;15.30;99.90
19522;DHT22;9905;52.126;5.596;2023-07-13T04:31:35;15.20;99.90
19522;DHT22;9905;52.126;5.596;2023-07-13T04:34:02;15.20;99.90
19522;DHT22;9905;52.126;5.596;2023-07-13T04:36:29;15.20;99.90
19522;DHT22;9905;52.126;5.596;2023-07-13T04:38:56;15.20;99.90
19522;DHT22;9905;52.126;5.596;2023-07-13T04:41:25;15.20;99.90
19522;DHT22;9905;52.126;5.596;2023-07-13T04:43:54;15.20;99.90
19522;DHT22;9905;52.126;5.596;2023-07-13T04:46:22;15.20;99.90
19522;DHT22;9905;52.126;5.596;2023-07-13T04:48:50;15.20;99.90
19522;DHT22;9905;52.126;5.596;2023-07-13T04:51:19;15.30;99.90
19522;DHT22;9905;52.126;5.596;2023-07-13T04:53:46;15.30;99.90
19522;DHT22;9905;52.126;5.596;2023-07-13T04:56:13;15.40;99.90
19522;DHT22;9905;52.126;5.596;2023-07-13T04:58:40;15.50;99.90
19522;DHT22;9905;52.126;5.596;2023-07-13T05:01:07;15.50;99.90
19522;DHT22;9905;52.126;5.596;2023-07-13T05:03:36;15.60;99.90
19522;DHT22;9905;52.126;5.596;2023-07-13T05:06:06;15.60;99.90
19522;DHT22;9905;52.126;5.596;2023-07-13T05:08:35;15.60;99.90
19522;DHT22;9905;52.126;5.596;2023-07-13T05:11:03;15.60;99.90
19522;DHT22;9905;52.126;5.596;2023-07-13T05:13:31;15.60;99.90
19522;DHT22;9905;52.126;5.596;2023-07-13T05:15:59;15.60;99.90
19522;DHT22;9905;52.126;5.596;2023-07-13T05:18:27;15.70;99.90
19522;DHT22;9905;52.126;5.596;2023-07-13T05:21:00;15.70;99.90
19522;DHT22;9905;52.126;5.596;2023-07-13T05:23:28;15.70;99.90
19522;DHT22;9905;52.126;5.596;2023-07-13T05:25:55;15.80;99.90
19522;DHT22;9905;52.126;5.596;2023-07-13T05:28:22;15.90;99.90
19522;DHT22;9905;52.126;5.596;2023-07-13T05:30:50;16.00;99.90
19522;DHT22;9905;52.126;5.596;2023-07-13T05:33:17;16.00;99.90
19522;DHT22;9905;52.126;5.596;2023-07-13T05:35:44;16.10;99.90
19522;DHT22;9905;52.126;5.596;2023-07-13T05:38:13;16.10;99.90
19522;DHT22;9905;52.126;5.596;2023-07-13T05:40:43;16.20;99.90
19522;DHT22;9905;52.126;5.596;2023-07-13T05:43:10;16.30;99.90
19522;DHT22;9905;52.126;5.596;2023-07-13T05:45:37;16.30;99.90
19522;DHT22;9905;52.126;5.596;2023-07-13T05:48:04;16.40;99.90
19522;DHT22;9905;52.126;5.596;2023-07-13T05:50:31;16.40;99.90
19522;DHT22;9905;52.126;5.596;2023-07-13T05:52:59;16.40;99.90
19522;DHT22;9905;52.126;5.596;2023-07-13T05:55:28;16.40;99.90
19522;DHT22;9905;52.126;5.596;2023-07-13T05:57:56;16.50;99.90
19522;DHT22;9905;52.126;5.596;2023-07-13T06:00:26;16.60;99.90
19522;DHT22;9905;52.126;5.596;2023-07-13T06:02:54;16.60;99.90
19522;DHT22;9905;52.126;5.596;2023-07-13T06:05:25;16.60;99.90
19522;DHT22;9905;52.126;5.596;2023-07-13T06:07:52;16.70;99.90
19522;DHT22;9905;52.126;5.596;2023-07-13T06:10:19;16.80;99.90
19522;DHT22;9905;52.126;5.596;2023-07-13T06:12:48;16.80;99.90
19522;DHT22;9905;52.126;5.596;2023-07-13T06:15:15;16.80;99.90
19522;DHT22;9905;52.126;5.596;2023-07-13T06:17:42;16.80;99.90
19522;DHT22;9905;52.126;5.596;2023-07-13T06:20:09;16.90;99.90
19522;DHT22;9905;52.126;5.596;2023-07-13T06:22:36;17.00;99.90
19522;DHT22;9905;52.126;5.596;2023-07-13T06:25:04;17.10;99.90
19522;DHT22;9905;52.126;5.596;2023-07-13T06:27:31;17.10;99.90
19522;DHT22;9905;52.126;5.596;2023-07-13T06:30:00;17.20;99.90
19522;DHT22;9905;52.126;5.596;2023-07-13T06:32:27;17.20;99.90
19522;DHT22;9905;52.126;5.596;2023-07-13T06:34:54;17.20;99.90
19522;DHT22;9905;52.126;5.596;2023-07-13T06:37:25;17.20;99.90
19522;DHT22;9905;52.126;5.596;2023-07-13T06:39:55;17.20;99.90
19522;DHT22;9905;52.126;5.596;2023-07-13T06:42:22;17.20;99.90
19522;DHT22;9905;52.126;5.596;2023-07-13T06:44:57;17.30;99.90
19522;DHT22;9905;52.126;5.596;2023-07-13T06:47:26;17.30;99.90
19522;DHT22;9905;52.126;5.596;2023-07-13T06:49:53;17.30;99.90
19522;DHT22;9905;52.126;5.596;2023-07-13T06:52:20;17.40;99.90
19522;DHT22;9905;52.126;5.596;2023-07-13T06:54:47;17.40;99.90
19522;DHT22;9905;52.126;5.596;2023-07-13T06:57:14;17.50;99.90
19522;DHT22;9905;52.126;5.596;2023-07-13T06:59:42;17.60;99.90
19522;DHT22;9905;52.126;5.596;2023-07-13T07:02:09;17.70;99.90
19522;DHT22;9905;52.126;5.596;2023-07-13T07:04:38;17.70;99.90
19522;DHT22;9905;52.126;5.596;2023-07-13T07:07:05;17.80;99.90
19522;DHT22;9905;52.126;5.596;2023-07-13T07:09:32;17.90;99.90
19522;DHT22;9905;52.126;5.596;2023-07-13T07:11:59;17.90;99.90
19522;DHT22;9905;52.126;5.596;2023-07-13T07:14:26;18.00;99.90
19522;DHT22;9905;52.126;5.596;2023-07-13T07:16:53;18.00;99.90
19522;DHT22;9905;52.126;5.596;2023-07-13T07:19:20;18.10;99.90
19522;DHT22;9905;52.126;5.596;2023-07-13T07:21:48;18.20;99.90
19522;DHT22;9905;52.126;5.596;2023-07-13T07:24:15;18.20;99.90
19522;DHT22;9905;52.126;5.596;2023-07-13T07:26:42;18.20;99.90
19522;DHT22;9905;52.126;5.596;2023-07-13T07:29:09;18.30;99.90
19522;DHT22;9905;52.126;5.596;2023-07-13T07:31:36;18.30;99.90
19522;DHT22;9905;52.126;5.596;2023-07-13T07:34:04;18.30;99.90
19522;DHT22;9905;52.126;5.596;2023-07-13T07:36:30;18.40;99.90
19522;DHT22;9905;52.126;5.596;2023-07-13T07:38:59;18.60;99.90
19522;DHT22;9905;52.126;5.596;2023-07-13T07:41:26;18.70;99.90
19522;DHT22;9905;52.126;5.596;2023-07-13T07:43:53;18.80;99.90
19522;DHT22;9905;52.126;5.596;2023-07-13T07:46:20;18.80;99.90
19522;DHT22;9905;52.126;5.596;2023-07-13T07:48:47;18.80;99.90
19522;DHT22;9905;52.126;5.596;2023-07-13T07:51:14;18.80;99.90
19522;DHT22;9905;52.126;5.596;2023-07-13T07:53:41;18.80;99.90
19522;DHT22;9905;52.126;5.596;2023-07-13T07:56:09;18.90;99.90
19522;DHT22;9905;52.126;5.596;2023-07-13T07:58:36;18.90;99.90
19522;DHT22;9905;52.126;5.596;2023-07-13T08:01:04;19.10;99.90
19522;DHT22;9905;52.126;5.596;2023-07-13T08:03:32;19.10;99.90
19522;DHT22;9905;52.126;5.596;2023-07-13T08:05:59;19.10;99.90
19522;DHT22;9905;52.126;5.596;2023-07-13T08:08:26;19.20;99.90
19522;DHT22;9905;52.126;5.596;2023-07-13T08:10:53;19.20;99.90
19522;DHT22;9905;52.126;5.596;2023-07-13T08:13:21;19.20;99.90
19522;DHT22;9905;52.126;5.596;2023-07-13T08:15:48;19.20;99.90
19522;DHT22;9905;52.126;5.596;2023-07-13T08:18:15;19.20;99.90
19522;DHT22;9905;52.126;5.596;2023-07-13T08:20:42;19.30;99.90
19522;DHT22;9905;52.126;5.596;2023-07-13T08:23:10;19.30;99.90
19522;DHT22;9905;52.126;5.596;2023-07-13T08:25:39;19.40;99.90
19522;DHT22;9905;52.126;5.596;2023-07-13T08:31:50;19.70;99.90
19522;DHT22;9905;52.126;5.596;2023-07-13T08:34:17;20.00;99.90
19522;DHT22;9905;52.126;5.596;2023-07-13T08:36:44;20.10;99.90
19522;DHT22;9905;52.126;5.596;2023-07-13T08:39:11;20.20;99.90
19522;DHT22;9905;52.126;5.596;2023-07-13T08:41:42;20.30;99.90
19522;DHT22;9905;52.126;5.596;2023-07-13T08:44:17;20.40;99.90
19522;DHT22;9905;52.126;5.596;2023-07-13T08:46:51;20.60;99.90
19522;DHT22;9905;52.126;5.596;2023-07-13T08:49:22;20.70;99.90
19522;DHT22;9905;52.126;5.596;2023-07-13T08:51:53;20.80;99.90
19522;DHT22;9905;52.126;5.596;2023-07-13T08:54:27;20.80;99.90
19522;DHT22;9905;52.126;5.596;2023-07-13T08:56:56;20.90;99.90
19522;DHT22;9905;52.126;5.596;2023-07-13T08:59:26;20.90;99.90
19522;DHT22;9905;52.126;5.596;2023-07-13T09:02:18;20.90;99.90
19522;DHT22;9905;52.126;5.596;2023-07-13T09:04:50;21.00;99.90
19522;DHT22;9905;52.126;5.596;2023-07-13T09:07:24;21.00;99.90
19522;DHT22;9905;52.126;5.596;2023-07-13T09:10:02;21.10;99.90
19522;DHT22;9905;52.126;5.596;2023-07-13T09:12:44;21.10;99.90
19522;DHT22;9905;52.126;5.596;2023-07-13T09:15:23;21.00;99.90
19522;DHT22;9905;52.126;5.596;2023-07-13T09:17:54;21.00;99.90
19522;DHT22;9905;52.126;5.596;2023-07-13T09:20:26;20.90;99.90
19522;DHT22;9905;52.126;5.596;2023-07-13T09:22:54;20.90;99.90
19522;DHT22;9905;52.126;5.596;2023-07-13T09:25:29;20.80;99.90
19522;DHT22;9905;52.126;5.596;2023-07-13T09:27:59;20.80;99.90
19522;DHT22;9905;52.126;5.596;2023-07-13T09:30:34;20.80;99.90
19522;DHT22;9905;52.126;5.596;2023-07-13T09:33:05;20.80;99.90
19522;DHT22;9905;52.126;5.596;2023-07-13T09:35:32;20.80;99.90
19522;DHT22;9905;52.126;5.596;2023-07-13T09:38:03;20.80;99.90
19522;DHT22;9905;52.126;5.596;2023-07-13T09:40:39;20.70;99.90
19522;DHT22;9905;52.126;5.596;2023-07-13T09:43:10;20.60;99.90
19522;DHT22;9905;52.126;5.596;2023-07-13T09:45:40;20.70;99.90
19522;DHT22;9905;52.126;5.596;2023-07-13T09:48:14;20.80;99.90
19522;DHT22;9905;52.126;5.596;2023-07-13T09:50:42;20.90;99.90
19522;DHT22;9905;52.126;5.596;2023-07-13T09:53:14;20.80;99.90
19522;DHT22;9905;52.126;5.596;2023-07-13T09:55:43;20.80;99.90
19522;DHT22;9905;52.126;5.596;2023-07-13T09:58:13;20.80;99.90
19522;DHT22;9905;52.126;5.596;2023-07-13T10:00:54;20.90;99.90
19522;DHT22;9905;52.126;5.596;2023-07-13T10:03:25;21.10;99.90
19522;DHT22;9905;52.126;5.596;2023-07-13T10:06:09;21.10;99.90
19522;DHT22;9905;52.126;5.596;2023-07-13T10:08:37;21.20;99.90
19522;DHT22;9905;52.126;5.596;2023-07-13T10:11:10;21.10;99.90
19522;DHT22;9905;52.126;5.596;2023-07-13T10:13:41;20.90;99.90
19522;DHT22;9905;52.126;5.596;2023-07-13T10:16:09;20.70;99.90
19522;DHT22;9905;52.126;5.596;2023-07-13T10:18:44;20.00;99.90
19522;DHT22;9905;52.126;5.596;2023-07-13T10:21:15;19.40;99.90
19522;DHT22;9905;52.126;5.596;2023-07-13T10:23:45;19.00;99.90
19522;DHT22;9905;52.126;5.596;2023-07-13T10:26:18;18.90;99.90
19522;DHT22;9905;52.126;5.596;2023-07-13T10:28:50;18.90;99.90
19522;DHT22;9905;52.126;5.596;2023-07-13T10:31:19;18.90;99.90
19522;DHT22;9905;52.126;5.596;2023-07-13T10:33:48;19.00;99.90
19522;DHT22;9905;52.126;5.596;2023-07-13T10:36:32;19.10;99.90
19522;DHT22;9905;52.126;5.596;2023-07-13T10:39:03;19.20;99.90
19522;DHT22;9905;52.126;5.596;2023-07-13T10:41:34;19.30;99.90
19522;DHT22;9905;52.126;5.596;2023-07-13T10:44:02;19.50;99.90
19522;DHT22;9905;52.126;5.596;2023-07-13T10:46:31;19.60;99.90
19522;DHT22;9905;52.126;5.596;2023-07-13T10:49:02;19.80;99.90
19522;DHT22;9905;52.126;5.596;2023-07-13T10:51:31;20.00;99.90
19522;DHT22;9905;52.126;5.596;2023-07-13T10:54:17;20.10;99.90
19522;DHT22;9905;52.126;5.596;2023-07-13T10:56:45;20.30;99.90
19522;DHT22;9905;52.126;5.596;2023-07-13T10:59:15;20.40;99.90
19522;DHT22;9905;52.126;5.596;2023-07-13T11:01:53;20.30;99.90
19522;DHT22;9905;52.126;5.596;2023-07-13T11:04:23;20.20;99.90
19522;DHT22;9905;52.126;5.596;2023-07-13T11:06:56;20.10;99.90
19522;DHT22;9905;52.126;5.596;2023-07-13T11:09:37;19.90;99.90
19522;DHT22;9905;52.126;5.596;2023-07-13T11:12:25;19.90;99.90
19522;DHT22;9905;52.126;5.596;2023-07-13T11:15:06;20.00;99.90
19522;DHT22;9905;52.126;5.596;2023-07-13T11:17:45;20.30;99.90
19522;DHT22;9905;52.126;5.596;2023-07-13T11:20:33;20.50;99.90
19522;DHT22;9905;52.126;5.596;2023-07-13T11:23:27;20.80;99.90
19522;DHT22;9905;52.126;5.596;2023-07-13T11:25:55;21.00;99.90
19522;DHT22;9905;52.126;5.596;2023-07-13T11:28:25;21.20;99.90
19522;DHT22;9905;52.126;5.596;2023-07-13T11:31:14;21.30;99.90
19522;DHT22;9905;52.126;5.596;2023-07-13T11:33:56;21.40;99.90
19522;DHT22;9905;52.126;5.596;2023-07-13T11:36:30;21.50;99.90
19522;DHT22;9905;52.126;5.596;2023-07-13T11:39:02;21.50;99.90
19522;DHT22;9905;52.126;5.596;2023-07-13T11:41:31;21.50;99.90
19522;DHT22;9905;52.126;5.596;2023-07-13T11:44:12;21.50;99.90
19522;DHT22;9905;52.126;5.596;2023-07-13T11:46:43;21.50;99.90
19522;DHT22;9905;52.126;5.596;2023-07-13T11:49:15;21.60;99.90
19522;DHT22;9905;52.126;5.596;2023-07-13T11:51:44;21.70;99.90
19522;DHT22;9905;52.126;5.596;2023-07-13T11:54:23;21.80;99.90
19522;DHT22;9905;52.126;5.596;2023-07-13T11:56:52;21.80;99.90
19522;DHT22;9905;52.126;5.596;2023-07-13T11:59:20;21.50;99.90
19522;DHT22;9905;52.126;5.596;2023-07-13T12:01:50;21.20;99.90
19522;DHT22;9905;52.126;5.596;2023-07-13T12:04:22;20.80;99.90
19522;DHT22;9905;52.126;5.596;2023-07-13T12:06:56;20.60;99.90
19522;DHT22;9905;52.126;5.596;2023-07-13T12:09:26;20.50;99.90
19522;DHT22;9905;52.126;5.596;2023-07-13T12:11:57;20.20;99.90
19522;DHT22;9905;52.126;5.596;2023-07-13T12:14:26;20.10;99.90
19522;DHT22;9905;52.126;5.596;2023-07-13T12:16:53;20.10;99.90
19522;DHT22;9905;52.126;5.596;2023-07-13T12:19:22;20.10;99.90
19522;DHT22;9905;52.126;5.596;2023-07-13T12:21:52;20.10;99.90
19522;DHT22;9905;52.126;5.596;2023-07-13T12:24:21;20.10;99.90
19522;DHT22;9905;52.126;5.596;2023-07-13T12:26:53;20.20;99.90
19522;DHT22;9905;52.126;5.596;2023-07-13T12:29:20;20.30;99.90
19522;DHT22;9905;52.126;5.596;2023-07-13T12:31:49;20.40;99.90
19522;DHT22;9905;52.126;5.596;2023-07-13T12:34:19;20.30;99.90
19522;DHT22;9905;52.126;5.596;2023-07-13T12:36:47;20.40;99.90
19522;DHT22;9905;52.126;5.596;2023-07-13T12:39:17;20.70;99.90
19522;DHT22;9905;52.126;5.596;2023-07-13T12:41:48;20.90;99.90
19522;DHT22;9905;52.126;5.596;2023-07-13T12:44:17;21.10;99.90
19522;DHT22;9905;52.126;5.596;2023-07-13T12:46:58;21.20;99.90
19522;DHT22;9905;52.126;5.596;2023-07-13T12:49:28;21.20;99.90
19522;DHT22;9905;52.126;5.596;2023-07-13T12:51:57;21.00;99.90
19522;DHT22;9905;52.126;5.596;2023-07-13T12:54:25;20.90;99.90
19522;DHT22;9905;52.126;5.596;2023-07-13T12:56:54;20.90;99.90
19522;DHT22;9905;52.126;5.596;2023-07-13T12:59:25;21.00;99.90
19522;DHT22;9905;52.126;5.596;2023-07-13T13:01:53;21.00;99.90
19522;DHT22;9905;52.126;5.596;2023-07-13T13:04:21;21.10;99.90
19522;DHT22;9905;52.126;5.596;2023-07-13T13:06:49;21.30;99.90
19522;DHT22;9905;52.126;5.596;2023-07-13T13:09:26;21.40;99.90
19522;DHT22;9905;52.126;5.596;2023-07-13T13:11:54;21.50;99.90
19522;DHT22;9905;52.126;5.596;2023-07-13T13:14:21;21.70;99.90
19522;DHT22;9905;52.126;5.596;2023-07-13T13:16:50;21.80;99.90
19522;DHT22;9905;52.126;5.596;2023-07-13T13:19:20;21.70;99.90
19522;DHT22;9905;52.126;5.596;2023-07-13T13:21:48;21.80;99.90
19522;DHT22;9905;52.126;5.596;2023-07-13T13:24:20;21.90;99.90
19522;DHT22;9905;52.126;5.596;2023-07-13T13:26:48;22.00;99.90
19522;DHT22;9905;52.126;5.596;2023-07-13T13:29:18;22.00;99.90
19522;DHT22;9905;52.126;5.596;2023-07-13T13:31:46;22.20;99.90
19522;DHT22;9905;52.126;5.596;2023-07-13T13:34:15;22.10;99.90
19522;DHT22;9905;52.126;5.596;2023-07-13T13:36:43;21.90;99.90
19522;DHT22;9905;52.126;5.596;2023-07-13T13:39:20;22.10;99.90
19522;DHT22;9905;52.126;5.596;2023-07-13T13:41:48;22.10;99.90
19522;DHT22;9905;52.126;5.596;2023-07-13T13:44:18;22.30;99.90
19522;DHT22;9905;52.126;5.596;2023-07-13T13:46:46;22.30;99.90
19522;DHT22;9905;52.126;5.596;2023-07-13T13:49:15;22.20;99.90
19522;DHT22;9905;52.126;5.596;2023-07-13T13:51:43;22.10;99.90
19522;DHT22;9905;52.126;5.596;2023-07-13T13:54:15;22.00;99.90
19522;DHT22;9905;52.126;5.596;2023-07-13T13:56:42;22.00;99.90
19522;DHT22;9905;52.126;5.596;2023-07-13T13:59:10;21.90;99.90
19522;DHT22;9905;52.126;5.596;2023-07-13T14:01:39;22.00;99.90
19522;DHT22;9905;52.126;5.596;2023-07-13T14:04:06;22.20;99.90
19522;DHT22;9905;52.126;5.596;2023-07-13T14:06:35;22.20;99.90
19522;DHT22;9905;52.126;5.596;2023-07-13T14:09:04;22.20;99.90
19522;DHT22;9905;52.126;5.596;2023-07-13T14:11:31;22.40;99.90
19522;DHT22;9905;52.126;5.596;2023-07-13T14:14:00;22.70;99.90
19522;DHT22;9905;52.126;5.596;2023-07-13T14:16:31;22.60;99.90
19522;DHT22;9905;52.126;5.596;2023-07-13T14:19:01;22.60;99.90
19522;DHT22;9905;52.126;5.596;2023-07-13T14:21:29;22.60;99.90
19522;DHT22;9905;52.126;5.596;2023-07-13T14:23:56;22.70;99.90
19522;DHT22;9905;52.126;5.596;2023-07-13T14:26:25;22.70;99.90
19522;DHT22;9905;52.126;5.596;2023-07-13T14:28:54;22.80;99.90
19522;DHT22;9905;52.126;5.596;2023-07-13T14:31:23;22.70;99.90
19522;DHT22;9905;52.126;5.596;2023-07-13T14:33:50;22.60;99.90
19522;DHT22;9905;52.126;5.596;2023-07-13T14:36:27;22.50;99.90
19522;DHT22;9905;52.126;5.596;2023-07-13T14:38:55;22.40;99.90
19522;DHT22;9905;52.126;5.596;2023-07-13T14:41:22;22.40;99.90
19522;DHT22;9905;52.126;5.596;2023-07-13T14:43:49;22.40;99.90
19522;DHT22;9905;52.126;5.596;2023-07-13T14:46:26;22.30;99.90
19522;DHT22;9905;52.126;5.596;2023-07-13T14:48:59;22.30;99.90
19522;DHT22;9905;52.126;5.596;2023-07-13T14:51:29;22.20;99.90
19522;DHT22;9905;52.126;5.596;2023-07-13T14:53:56;22.40;99.90
19522;DHT22;9905;52.126;5.596;2023-07-13T14:56:23;22.70;99.90
19522;DHT22;9905;52.126;5.596;2023-07-13T14:58:50;23.00;99.90
19522;DHT22;9905;52.126;5.596;2023-07-13T15:01:18;23.20;99.90
19522;DHT22;9905;52.126;5.596;2023-07-13T15:03:49;23.30;99.90
19522;DHT22;9905;52.126;5.596;2023-07-13T15:06:17;23.40;99.90
19522;DHT22;9905;52.126;5.596;2023-07-13T15:08:46;23.50;99.90
19522;DHT22;9905;52.126;5.596;2023-07-13T15:11:14;23.60;99.90
19522;DHT22;9905;52.126;5.596;2023-07-13T15:13:41;23.70;99.90
19522;DHT22;9905;52.126;5.596;2023-07-13T15:16:15;23.70;99.90
19522;DHT22;9905;52.126;5.596;2023-07-13T15:18:44;23.90;99.90
19522;DHT22;9905;52.126;5.596;2023-07-13T15:21:14;24.00;99.90
19522;DHT22;9905;52.126;5.596;2023-07-13T15:23:42;24.10;99.90
19522;DHT22;9905;52.126;5.596;2023-07-13T15:26:13;23.90;99.90
19522;DHT22;9905;52.126;5.596;2023-07-13T15:28:41;23.80;99.90
19522;DHT22;9905;52.126;5.596;2023-07-13T15:31:20;23.70;99.90
19522;DHT22;9905;52.126;5.596;2023-07-13T15:33:49;23.90;99.90
19522;DHT22;9905;52.126;5.596;2023-07-13T15:36:17;24.10;99.90
19522;DHT22;9905;52.126;5.596;2023-07-13T15:38:45;24.00;99.90
19522;DHT22;9905;52.126;5.596;2023-07-13T15:41:19;23.80;99.90
19522;DHT22;9905;52.126;5.596;2023-07-13T15:43:49;23.60;99.90
19522;DHT22;9905;52.126;5.596;2023-07-13T15:46:20;23.60;99.90
19522;DHT22;9905;52.126;5.596;2023-07-13T15:48:48;23.70;99.90
19522;DHT22;9905;52.126;5.596;2023-07-13T15:51:23;23.90;99.90
19522;DHT22;9905;52.126;5.596;2023-07-13T15:53:52;24.00;99.90
19522;DHT22;9905;52.126;5.596;2023-07-13T15:56:24;24.00;99.90
19522;DHT22;9905;52.126;5.596;2023-07-13T15:58:52;24.00;99.90
19522;DHT22;9905;52.126;5.596;2023-07-13T16:01:19;24.00;99.90
19522;DHT22;9905;52.126;5.596;2023-07-13T16:03:48;24.00;99.90